Time;durP1;ratioP1;P1;durP2;ratioP2;P2;SDS_P1;SDS_P2;PMS_P1;PMS_P2;Temp;Humidity;BMP_temperature;BMP_pressure;BME280_temperature;BME280_humidity;BME280_pressure;Samples;Min_cycle;Max_cycle;Signal;HPM_P1;HPM_P2
2022/11/07 00:01:28;;;;;;;;;;;;;;;3.49;76.43;102146.09;1886046;76;20437;-61
2022/11/07 00:03:56;;;;;;;;;;;;;;;3.47;76.47;102142.16;1887977;76;20199;-58
2022/11/07 00:06:24;;;;;;;;;;;;;;;3.44;76.55;102140.80;1888070;76;20139;-58
2022/11/07 00:08:54;;;;;;;;;;;;;;;3.44;76.53;102133.43;1887467;76;20109;-59
2022/11/07 00:11:21;;;;;;;;;;;;;;;3.44;76.58;102130.39;1888202;76;20112;-58
2022/11/07 00:13:49;;;;;;;;;;;;;;;3.42;76.60;102136.45;1888291;75;20251;-61
2022/11/07 00:16:17;;;;;;;;;;;;;;;3.41;76.60;102134.28;1889119;75;20252;-61
2022/11/07 00:18:45;;;;;;;;;;;;;;;3.41;76.64;102132.08;1880990;76;20180;-61
2022/11/07 00:21:13;;;;;;;;;;;;;;;3.40;76.63;102129.91;1885842;76;20124;-59
2022/11/07 00:23:42;;;;;;;;;;;;;;;3.40;76.66;102124.70;1888056;76;20604;-58
2022/11/07 00:26:13;;;;;;;;;;;;;;;3.38;76.61;102117.30;1887819;76;20159;-58
2022/11/07 00:28:42;;;;;;;;;;;;;;;3.38;76.61;102117.73;1881111;76;20371;-60
2022/11/07 00:31:11;;;;;;;;;;;;;;;3.37;76.65;102119.45;1880925;76;20125;-58
2022/11/07 00:33:39;;;;;;;;;;;;;;;3.36;76.64;102115.11;1880945;76;20129;-58
2022/11/07 00:36:08;;;;;;;;;;;;;;;3.35;76.69;102121.16;1881326;76;20144;-55
2022/11/07 00:38:36;;;;;;;;;;;;;;;3.33;76.67;102120.27;1870581;76;20151;-58
2022/11/07 00:41:05;;;;;;;;;;;;;;;3.34;76.67;102123.33;1878614;76;20124;-59
2022/11/07 00:43:33;;;;;;;;;;;;;;;3.33;76.70;102120.27;1879427;75;20260;-60
2022/11/07 00:46:02;;;;;;;;;;;;;;;3.34;76.66;102116.83;1859937;76;20121;-60
2022/11/07 00:48:31;;;;;;;;;;;;;;;3.33;76.66;102115.06;1857994;77;20367;-60
2022/11/07 00:51:10;;;;;;;;;;;;;;;3.34;76.63;102112.92;1858037;77;20164;-55
2022/11/07 00:53:38;;;;;;;;;;;;;;;3.35;76.65;102113.34;1857979;77;20117;-56
2022/11/07 00:56:07;;;;;;;;;;;;;;;3.33;76.70;102111.16;1857933;76;20117;-56
2022/11/07 00:58:35;;;;;;;;;;;;;;;3.31;76.75;102113.30;1857969;77;20147;-55
2022/11/07 01:01:07;;;;;;;;;;;;;;;3.27;76.82;102112.39;1859266;76;20120;-56
2022/11/07 01:06:22;;;;;;;;;;;;;;;3.28;76.81;102107.61;1862703;76;20121;-56
2022/11/07 01:08:50;;;;;;;;;;;;;;;3.28;76.80;102104.60;1879431;76;20109;-55
2022/11/07 01:11:18;;;;;;;;;;;;;;;3.28;76.79;102107.20;1865207;76;20191;-55
2022/11/07 01:13:46;;;;;;;;;;;;;;;3.28;76.78;102099.80;1857993;77;20140;-59
2022/11/07 01:16:14;;;;;;;;;;;;;;;3.28;76.72;102095.89;1857963;77;20109;-57
2022/11/07 01:18:42;;;;;;;;;;;;;;;3.28;76.70;102098.09;1867568;76;20272;-52
2022/11/07 01:21:10;;;;;;;;;;;;;;;3.29;76.76;102097.22;1868268;76;20168;-54
2022/11/07 01:23:37;;;;;;;;;;;;;;;3.26;76.68;102093.70;1861913;76;20117;-50
2022/11/07 01:26:06;;;;;;;;;;;;;;;3.26;76.69;102097.61;1872694;76;20564;-53
2022/11/07 01:28:35;;;;;;;;;;;;;;;3.27;76.63;102092.86;1868095;76;21049;-50
2022/11/07 01:31:03;;;;;;;;;;;;;;;3.27;76.67;102097.63;1866145;76;20160;-51
2022/11/07 01:33:31;;;;;;;;;;;;;;;3.25;76.65;102092.84;1868523;75;20258;-52
2022/11/07 01:36:02;;;;;;;;;;;;;;;3.24;76.69;102090.21;1861701;76;20113;-53
2022/11/07 01:38:31;;;;;;;;;;;;;;;3.22;76.66;102093.22;1857924;75;20117;-53
2022/11/07 01:43:54;;;;;;;;;;;;;;;3.17;76.75;102083.17;1869639;76;20147;-54
2022/11/07 01:46:24;;;;;;;;;;;;;;;3.15;76.83;102083.58;1862077;76;20184;-52
2022/11/07 01:49:09;;;;;;;;;;;;;;;3.14;76.79;102083.16;1865882;76;20114;-58
2022/11/07 01:51:38;;;;;;;;;;;;;;;3.15;76.77;102083.58;1868092;76;20153;-57
2022/11/07 01:54:07;;;;;;;;;;;;;;;3.15;76.79;102084.88;1869374;76;20121;-57
2022/11/07 01:56:36;;;;;;;;;;;;;;;3.12;76.93;102079.22;1866524;75;20453;-60
2022/11/07 01:59:05;;;;;;;;;;;;;;;3.05;76.94;102078.25;1867681;76;20105;-57
2022/11/07 02:01:33;;;;;;;;;;;;;;;3.05;77.02;102080.86;1873413;76;20436;-59
2022/11/07 02:04:03;;;;;;;;;;;;;;;3.05;76.98;102078.25;1897944;75;20113;-57
2022/11/07 02:06:32;;;;;;;;;;;;;;;3.04;77.05;102083.03;1879591;76;20108;-56
2022/11/07 02:09:00;;;;;;;;;;;;;;;3.01;77.02;102082.98;1860717;75;20148;-56
2022/11/07 02:11:28;;;;;;;;;;;;;;;3.01;77.01;102079.08;1865916;76;20238;-57
2022/11/07 02:13:56;;;;;;;;;;;;;;;3.01;77.00;102077.77;1864301;76;20120;-56
2022/11/07 02:16:24;;;;;;;;;;;;;;;3.02;77.02;102080.80;1865103;76;20228;-57
2022/11/07 02:18:52;;;;;;;;;;;;;;;3.02;76.99;102080.80;1864778;75;20117;-57
2022/11/07 02:21:21;;;;;;;;;;;;;;;3.05;76.96;102077.39;1870067;76;20259;-58
2022/11/07 02:24:00;;;;;;;;;;;;;;;3.03;76.91;102081.27;1863953;76;20247;-68
2022/11/07 02:26:28;;;;;;;;;;;;;;;3.01;76.92;102086.88;1863755;75;20120;-64
2022/11/07 02:28:57;;;;;;;;;;;;;;;3.02;76.87;102079.50;1867688;76;20125;-66
2022/11/07 02:31:25;;;;;;;;;;;;;;;3.01;76.87;102081.67;1868680;76;20148;-65
2022/11/07 02:33:57;;;;;;;;;;;;;;;3.01;76.90;102079.08;1870008;76;20382;-64
2022/11/07 02:36:25;;;;;;;;;;;;;;;2.97;76.90;102079.89;1867655;76;20101;-63
2022/11/07 02:38:57;;;;;;;;;;;;;;;2.97;76.91;102085.09;1872140;76;20128;-62
2022/11/07 02:41:26;;;;;;;;;;;;;;;2.96;77.02;102088.53;1881315;75;20109;-62
2022/11/07 02:43:56;;;;;;;;;;;;;;;2.94;76.97;102086.34;1879581;76;20125;-62
2022/11/07 02:46:25;;;;;;;;;;;;;;;2.93;77.00;102079.38;1877856;76;20121;-63
2022/11/07 02:48:58;;;;;;;;;;;;;;;2.96;76.96;102082.03;1877553;76;20125;-61
2022/11/07 02:51:25;;;;;;;;;;;;;;;2.95;77.02;102075.50;1877519;76;20395;-66
2022/11/07 02:53:54;;;;;;;;;;;;;;;2.93;76.98;102070.27;1877888;76;20148;-66
2022/11/07 02:56:23;;;;;;;;;;;;;;;2.93;76.99;102070.27;1877485;76;20120;-64
2022/11/07 02:58:51;;;;;;;;;;;;;;;2.94;76.93;102068.56;1877389;76;20117;-63
2022/11/07 03:01:19;;;;;;;;;;;;;;;2.93;76.90;102066.80;1877814;76;20263;-67
2022/11/07 03:03:48;;;;;;;;;;;;;;;2.90;76.87;102064.61;1880326;76;20243;-69
2022/11/07 03:06:17;;;;;;;;;;;;;;;2.89;76.88;102065.89;1878847;76;20105;-64
2022/11/07 03:08:45;;;;;;;;;;;;;;;2.87;76.85;102062.39;1878507;76;20413;-63
2022/11/07 03:11:18;;;;;;;;;;;;;;;2.86;76.87;102064.56;1886038;76;20117;-65
2022/11/07 03:13:43;;;;;;;;;;;;;;;2.85;76.86;102064.10;1885932;76;20227;-66
2022/11/07 03:16:11;;;;;;;;;;;;;;;2.82;76.88;102058.84;1886242;76;20155;-65
2022/11/07 03:18:38;;;;;;;;;;;;;;;2.81;76.97;102063.62;1886212;76;20195;-64
2022/11/07 03:21:07;;;;;;;;;;;;;;;2.79;77.01;102058.83;1885591;75;20121;-65
2022/11/07 03:23:35;;;;;;;;;;;;;;;2.78;76.98;102055.77;1884704;75;20159;-62
2022/11/07 03:26:03;;;;;;;;;;;;;;;2.79;76.96;102059.69;1884631;75;20105;-63
2022/11/07 03:28:31;;;;;;;;;;;;;;;2.80;76.89;102055.34;1884607;76;20221;-62
2022/11/07 03:31:01;;;;;;;;;;;;;;;2.84;76.87;102054.53;1887979;75;20165;-63
2022/11/07 03:33:29;;;;;;;;;;;;;;;2.83;76.88;102055.41;1884667;75;20214;-62
2022/11/07 03:35:57;;;;;;;;;;;;;;;2.82;76.84;102056.24;1886953;75;20106;-63
2022/11/07 03:38:25;;;;;;;;;;;;;;;2.82;76.82;102054.54;1893803;75;20141;-62
2022/11/07 03:40:52;;;;;;;;;;;;;;;2.83;76.80;102052.80;1889970;75;20214;-62
2022/11/07 03:43:20;;;;;;;;;;;;;;;2.81;76.78;102054.52;1907314;75;20165;-62
2022/11/07 03:45:48;;;;;;;;;;;;;;;2.83;76.75;102046.30;1918069;75;20190;-61
2022/11/07 03:48:16;;;;;;;;;;;;;;;2.80;76.78;102052.75;1918122;75;20115;-63
2022/11/07 03:50:44;;;;;;;;;;;;;;;2.79;76.78;102054.92;1911055;75;20133;-61
2022/11/07 03:53:12;;;;;;;;;;;;;;;2.80;76.79;102050.15;1900380;75;20119;-61
2022/11/07 03:55:42;;;;;;;;;;;;;;;2.79;76.77;102052.32;1900469;75;20166;-59
2022/11/07 03:58:09;;;;;;;;;;;;;;;2.78;76.76;102049.26;1907582;75;20161;-60
2022/11/07 04:00:37;;;;;;;;;;;;;;;2.78;76.75;102051.42;1915546;75;20150;-62
2022/11/07 04:03:05;;;;;;;;;;;;;;;2.76;76.74;102051.83;1915555;75;20102;-61
2022/11/07 04:05:33;;;;;;;;;;;;;;;2.76;76.74;102055.73;1915775;75;20119;-62
2022/11/07 04:08:01;;;;;;;;;;;;;;;2.73;76.76;102043.11;1906438;75;20222;-61
2022/11/07 04:10:28;;;;;;;;;;;;;;;2.73;76.76;102045.70;1885226;76;20149;-63
2022/11/07 04:18:29;;;;;;;;;;;;;;;2.75;76.70;102054.00;1883834;76;20120;-61
2022/11/07 04:20:57;;;;;;;;;;;;;;;2.77;76.67;102052.73;1885207;76;20148;-62
2022/11/07 04:23:25;;;;;;;;;;;;;;;2.77;76.62;102050.13;1884564;76;20113;-63
2022/11/07 04:28:38;;;;;;;;;;;;;;;2.77;76.62;102056.63;1883596;76;20111;-60
2022/11/07 04:31:06;;;;;;;;;;;;;;;2.77;76.65;102056.20;1884378;76;20117;-62
2022/11/07 04:33:34;;;;;;;;;;;;;;;2.80;76.61;102057.95;1882978;76;20137;-64
2022/11/07 04:36:02;;;;;;;;;;;;;;;2.76;76.69;102051.83;1883383;76;20116;-63
2022/11/07 04:38:30;;;;;;;;;;;;;;;2.72;76.70;102051.78;1885252;76;20163;-62
2022/11/07 04:40:58;;;;;;;;;;;;;;;2.68;76.80;102049.56;1884329;76;20113;-62
2022/11/07 04:43:27;;;;;;;;;;;;;;;2.63;76.89;102053.38;1880585;76;20117;-63
2022/11/07 04:45:55;;;;;;;;;;;;;;;2.59;77.04;102047.69;1877847;76;20109;-61
2022/11/07 04:48:23;;;;;;;;;;;;;;;2.58;77.07;102045.92;1877834;76;20104;-60
2022/11/07 04:50:51;;;;;;;;;;;;;;;2.59;77.07;102046.39;1879156;75;20164;-53
2022/11/07 04:53:19;;;;;;;;;;;;;;;2.60;77.04;102046.85;1879094;76;20235;-57
2022/11/07 04:55:47;;;;;;;;;;;;;;;2.63;77.05;102039.08;1879174;75;20218;-59
2022/11/07 04:58:14;;;;;;;;;;;;;;;2.65;77.10;102043.87;1880543;76;20114;-52
2022/11/07 05:00:42;;;;;;;;;;;;;;;2.65;77.04;102043.87;1878209;76;20109;-57
2022/11/07 05:03:10;;;;;;;;;;;;;;;2.65;77.04;102041.70;1880143;76;20255;-57
2022/11/07 05:05:38;;;;;;;;;;;;;;;2.68;77.05;102043.92;1878586;76;20155;-57
2022/11/07 05:08:06;;;;;;;;;;;;;;;2.69;77.05;102040.89;1877302;76;20231;-58
2022/11/07 05:10:34;;;;;;;;;;;;;;;2.72;77.11;102050.48;1879790;76;20172;-57
2022/11/07 05:13:01;;;;;;;;;;;;;;;2.69;77.13;102048.28;1878616;76;20247;-56
2022/11/07 05:15:29;;;;;;;;;;;;;;;2.72;77.11;102050.48;1880496;76;20159;-57
2022/11/07 05:17:57;;;;;;;;;;;;;;;2.77;77.07;102057.49;1878329;76;20203;-57
2022/11/07 05:20:32;;;;;;;;;;;;;;;2.83;77.00;102054.10;1878517;76;20234;-57
2022/11/07 05:23:17;;;;;;;;;;;;;;;2.84;76.99;102063.64;1881679;76;20449;-57
2022/11/07 05:25:43;;;;;;;;;;;;;;;2.82;76.98;102061.45;1877663;75;20148;-57
2022/11/07 05:28:11;;;;;;;;;;;;;;;2.84;76.99;102061.04;1899827;75;20118;-56
2022/11/07 05:30:40;;;;;;;;;;;;;;;2.84;76.94;102058.44;1920655;75;20110;-55
2022/11/07 05:33:09;;;;;;;;;;;;;;;2.87;76.89;102063.26;1916685;75;20114;-56
2022/11/07 05:35:37;;;;;;;;;;;;;;;2.90;76.93;102061.14;1887917;75;20113;-53
2022/11/07 05:38:04;;;;;;;;;;;;;;;2.92;76.94;102056.83;1881282;76;20118;-54
2022/11/07 05:40:34;;;;;;;;;;;;;;;2.93;76.95;102057.27;1879915;76;20112;-52
2022/11/07 05:43:04;;;;;;;;;;;;;;;2.94;76.95;102052.52;1879030;76;20155;-53
2022/11/07 05:45:32;;;;;;;;;;;;;;;2.97;76.95;102057.78;1881582;76;20383;-56
2022/11/07 05:48:00;;;;;;;;;;;;;;;2.98;76.90;102053.00;1883991;76;20175;-60
2022/11/07 05:50:29;;;;;;;;;;;;;;;3.06;76.89;102055.30;1878415;76;20109;-57
2022/11/07 05:52:57;;;;;;;;;;;;;;;3.13;76.89;102054.06;1877579;76;20147;-59
2022/11/07 05:55:25;;;;;;;;;;;;;;;3.18;76.87;102062.81;1882141;75;20120;-55
2022/11/07 05:57:54;;;;;;;;;;;;;;;3.17;76.79;102063.25;1884582;76;20146;-55
2022/11/07 06:00:23;;;;;;;;;;;;;;;3.21;76.73;102058.92;1883939;76;20144;-58
2022/11/07 06:02:54;;;;;;;;;;;;;;;3.27;76.68;102056.42;1884654;76;20148;-58
2022/11/07 06:05:22;;;;;;;;;;;;;;;3.35;76.59;102046.95;1884547;76;20120;-57
2022/11/07 06:07:50;;;;;;;;;;;;;;;3.51;76.50;102045.85;1884570;76;20155;-57
2022/11/07 06:10:19;;;;;;;;;;;;;;;3.55;76.36;102041.98;1883932;76;20152;-57
2022/11/07 06:12:47;;;;;;;;;;;;;;;3.57;76.28;102041.56;1878276;76;20125;-57
2022/11/07 06:15:15;;;;;;;;;;;;;;;3.61;76.22;102036.82;1877545;76;20120;-56
2022/11/07 06:17:43;;;;;;;;;;;;;;;3.64;76.18;102034.27;1881498;76;20117;-60
2022/11/07 06:20:11;;;;;;;;;;;;;;;3.70;76.12;102037.80;1918579;75;20158;-59
2022/11/07 06:22:38;;;;;;;;;;;;;;;3.77;76.09;102035.70;1907626;75;20117;-59
2022/11/07 06:25:06;;;;;;;;;;;;;;;3.77;75.84;102036.56;1874380;76;20117;-61
2022/11/07 06:27:34;;;;;;;;;;;;;;;3.89;75.81;102027.11;1875097;76;20250;-51
2022/11/07 06:30:02;;;;;;;;;;;;;;;4.01;75.58;102029.84;1877520;76;20151;-52
2022/11/07 06:32:30;;;;;;;;;;;;;;;4.09;75.46;102029.45;1877512;76;20114;-58
2022/11/07 06:34:58;;;;;;;;;;;;;;;4.29;75.35;102024.85;1878787;75;20121;-61
2022/11/07 06:37:26;;;;;;;;;;;;;;;4.48;74.97;102022.80;1880029;76;20207;-61
2022/11/07 06:39:54;;;;;;;;;;;;;;;4.76;74.66;102013.42;1879257;75;20246;-64
2022/11/07 06:42:23;;;;;;;;;;;;;;;5.27;73.78;102012.32;1877793;76;20125;-61
2022/11/07 06:44:53;;;;;;;;;;;;;;;5.72;72.91;102008.53;1879388;75;20123;-64
2022/11/07 06:47:20;;;;;;;;;;;;;;;6.08;72.16;102006.39;1893456;74;20201;-60
2022/11/07 06:49:49;;;;;;;;;;;;;;;6.38;71.73;102007.23;1894527;76;20112;-61
2022/11/07 06:52:17;;;;;;;;;;;;;;;6.77;71.03;102001.51;1934765;73;20108;-61
2022/11/07 06:54:45;;;;;;;;;;;;;;;7.21;70.06;101993.91;1922455;74;20126;-65
2022/11/07 06:57:12;;;;;;;;;;;;;;;7.31;68.93;101994.73;1927351;74;20140;-62
2022/11/07 06:59:40;;;;;;;;;;;;;;;7.11;68.71;101991.75;1927480;74;20144;-62
2022/11/07 07:02:10;;;;;;;;;;;;;;;6.73;68.82;101998.44;1894514;75;20161;-63
2022/11/07 07:04:37;;;;;;;;;;;;;;;6.37;69.03;101991.12;1920865;73;20223;-67
2022/11/07 07:07:05;;;;;;;;;;;;;;;6.15;69.54;101997.67;1955863;73;20192;-63
2022/11/07 07:12:22;;;;;;;;;;;;;;;5.66;70.34;101984.54;1855399;77;20151;-61
2022/11/07 07:14:50;;;;;;;;;;;;;;;5.57;70.77;101982.81;1855352;77;20139;-61
2022/11/07 07:17:18;;;;;;;;;;;;;;;5.48;70.81;101983.20;1842004;77;20151;-60
2022/11/07 07:19:46;;;;;;;;;;;;;;;5.41;71.10;101979.28;1830274;77;20301;-58
2022/11/07 07:22:13;;;;;;;;;;;;;;;5.43;71.37;101977.98;1836366;77;20230;-60
2022/11/07 07:24:41;;;;;;;;;;;;;;;5.39;71.37;101976.24;1839643;77;20289;-54
2022/11/07 07:27:09;;;;;;;;;;;;;;;5.28;71.43;101974.91;1841564;77;20260;-49
2022/11/07 07:29:37;;;;;;;;;;;;;;;5.22;71.48;101977.52;1845771;77;20149;-57
2022/11/07 07:32:05;;;;;;;;;;;;;;;5.20;71.54;101972.28;1830520;77;20148;-57
2022/11/07 07:34:33;;;;;;;;;;;;;;;5.26;71.64;101967.51;1823214;78;20192;-58
2022/11/07 07:37:01;;;;;;;;;;;;;;;5.47;71.71;101968.42;1844087;76;20115;-61
2022/11/07 07:39:29;;;;;;;;;;;;;;;5.81;71.32;101968.03;1884842;76;20151;-59
2022/11/07 07:41:57;;;;;;;;;;;;;;;6.27;70.52;101965.42;1884965;76;20117;-60
2022/11/07 07:44:25;;;;;;;;;;;;;;;6.73;68.46;101968.34;1879187;76;20312;-61
2022/11/07 07:46:53;;;;;;;;;;;;;;;6.50;68.69;101965.36;1847962;77;20139;-62
2022/11/07 07:49:20;;;;;;;;;;;;;;;6.50;68.37;101965.36;1865968;76;20105;-65
2022/11/07 07:51:48;;;;;;;;;;;;;;;6.34;68.50;101963.64;1855388;77;20127;-63
2022/11/07 07:54:16;;;;;;;;;;;;;;;6.18;68.78;101958.45;1855316;77;20202;-63
2022/11/07 07:56:44;;;;;;;;;;;;;;;6.04;69.01;101965.43;1855317;77;20178;-59
2022/11/07 07:59:12;;;;;;;;;;;;;;;5.95;69.34;101958.45;1855309;77;20762;-60
2022/11/07 08:01:39;;;;;;;;;;;;;;;5.93;69.66;101961.92;1855328;77;20176;-61
2022/11/07 08:04:07;;;;;;;;;;;;;;;5.94;69.94;101959.31;1855338;77;20180;-53
2022/11/07 08:06:36;;;;;;;;;;;;;;;6.18;70.24;101955.84;1850284;77;20216;-54
2022/11/07 08:09:04;;;;;;;;;;;;;;;6.96;69.05;101948.63;1864519;76;20121;-54
2022/11/07 08:11:32;;;;;;;;;;;;;;;7.98;67.19;101942.23;1871606;76;20112;-52
2022/11/07 08:14:00;;;;;;;;;;;;;;;8.03;65.29;101950.08;1847587;77;20146;-53
2022/11/07 08:16:28;;;;;;;;;;;;;;;7.77;65.16;101942.44;1844062;78;20381;-59
2022/11/07 08:18:55;;;;;;;;;;;;;;;7.79;65.18;101949.85;1841955;78;20111;-61
2022/11/07 08:21:23;;;;;;;;;;;;;;;7.67;65.04;101945.14;1842094;78;20111;-61
2022/11/07 08:23:52;;;;;;;;;;;;;;;7.69;64.51;101942.06;1842230;78;20131;-62
2022/11/07 08:26:20;;;;;;;;;;;;;;;7.78;65.13;101937.61;1843291;77;20420;-63
2022/11/07 08:28:47;;;;;;;;;;;;;;;7.95;64.45;101927.86;1842016;78;20147;-63
2022/11/07 08:31:15;;;;;;;;;;;;;;;8.10;63.45;101925.08;1841624;78;20198;-64
2022/11/07 08:33:43;;;;;;;;;;;;;;;8.47;62.99;101921.24;1831950;78;20111;-61
2022/11/07 08:36:11;;;;;;;;;;;;;;;8.64;62.62;101917.09;1843807;78;20149;-61
2022/11/07 08:38:39;;;;;;;;;;;;;;;9.02;62.08;101910.04;1841609;78;20125;-62
2022/11/07 08:41:07;;;;;;;;;;;;;;;10.20;60.02;101909.88;1837540;77;20161;-63
2022/11/07 08:43:34;;;;;;;;;;;;;;;10.14;59.50;101909.11;1841229;78;20123;-63
2022/11/07 08:46:05;;;;;;;;;;;;;;;11.61;57.86;101901.61;1835162;77;20116;-63
2022/11/07 08:48:34;;;;;;;;;;;;;;;11.73;56.18;101898.20;1835800;78;20123;-60
2022/11/07 08:51:04;;;;;;;;;;;;;;;10.74;57.08;101902.25;1838645;78;20197;-60
2022/11/07 08:53:32;;;;;;;;;;;;;;;10.08;58.40;101906.60;1842433;78;20160;-59
2022/11/07 08:56:05;;;;;;;;;;;;;;;10.24;58.58;101897.52;1837402;78;20115;-62
2022/11/07 08:58:33;;;;;;;;;;;;;;;10.16;58.62;101896.36;1838290;77;20115;-53
2022/11/07 09:01:02;;;;;;;;;;;;;;;10.47;57.38;101891.83;1819220;78;20122;-60
2022/11/07 09:03:30;;;;;;;;;;;;;;;11.01;54.94;101888.04;1815325;78;20177;-61
2022/11/07 09:05:58;;;;;;;;;;;;;;;10.86;54.86;101892.34;1813388;79;20121;-61
2022/11/07 09:08:26;;;;;;;;;;;;;;;12.16;52.66;101881.72;1815488;78;20149;-63
2022/11/07 09:10:54;;;;;;;;;;;;;;;13.29;49.95;101874.80;1821330;78;20149;-62
2022/11/07 09:13:22;;;;;;;;;;;;;;;14.16;48.65;101871.45;1833552;76;20226;-63
2022/11/07 09:15:49;;;;;;;;;;;;;;;14.84;47.21;101867.64;1807263;79;20130;-63
2022/11/07 09:18:17;;;;;;;;;;;;;;;15.42;46.35;101866.63;1806988;79;20169;-63
2022/11/07 09:20:45;;;;;;;;;;;;;;;16.35;44.80;101866.66;1809161;78;20113;-63
2022/11/07 09:23:13;;;;;;;;;;;;;;;16.32;43.96;101857.03;1807162;79;20122;-63
2022/11/07 09:25:40;;;;;;;;;;;;;;;16.66;43.41;101854.61;1807145;79;20152;-63
2022/11/07 09:28:09;;;;;;;;;;;;;;;15.86;44.67;101855.53;1807146;79;20134;-63
2022/11/07 09:30:37;;;;;;;;;;;;;;;15.10;45.24;101857.79;1809217;78;20208;-63
2022/11/07 09:33:04;;;;;;;;;;;;;;;14.47;46.00;101854.44;1807120;79;20168;-64
2022/11/07 09:35:32;;;;;;;;;;;;;;;15.13;45.16;101847.06;1807186;79;20122;-64
2022/11/07 09:38:00;;;;;;;;;;;;;;;15.54;43.95;101847.13;1807099;79;20156;-63
2022/11/07 09:40:45;;;;;;;;;;;;;;;15.75;43.91;101835.64;1826578;77;20125;-63
2022/11/07 09:43:30;;;;;;;;;;;;;;;15.69;43.57;101835.85;1836938;78;20120;-64
2022/11/07 09:46:02;;;;;;;;;;;;;;;15.62;43.38;101839.69;1807134;79;20161;-63
2022/11/07 09:48:47;;;;;;;;;;;;;;;15.61;43.34;101828.22;1807155;79;20102;-63
2022/11/07 09:51:16;;;;;;;;;;;;;;;15.52;43.62;101827.76;1807603;78;20154;-63
2022/11/07 09:53:46;;;;;;;;;;;;;;;15.63;44.30;101822.38;1838224;77;20107;-62
2022/11/07 09:56:14;;;;;;;;;;;;;;;15.60;43.77;101830.94;1837336;78;20116;-54
2022/11/07 09:58:43;;;;;;;;;;;;;;;15.68;44.00;101819.54;1837073;78;20154;-60
2022/11/07 10:01:15;;;;;;;;;;;;;;;15.68;43.94;101816.00;1837420;78;20123;-59
2022/11/07 10:03:43;;;;;;;;;;;;;;;15.23;45.02;101807.27;1835117;78;20120;-59
2022/11/07 10:06:15;;;;;;;;;;;;;;;15.25;45.15;101807.63;1837166;78;20150;-61
2022/11/07 10:08:45;;;;;;;;;;;;;;;15.71;44.29;101810.09;1837400;77;20119;-59
2022/11/07 10:11:26;;;;;;;;;;;;;;;15.85;43.75;101803.37;1837595;77;20111;-59
2022/11/07 10:13:55;;;;;;;;;;;;;;;15.78;43.54;101807.60;1841445;76;20120;-62
2022/11/07 10:16:42;;;;;;;;;;;;;;;15.91;43.16;101801.77;1843878;77;20115;-64
2022/11/07 10:19:17;;;;;;;;;;;;;;;15.99;42.58;101807.58;1844198;76;20162;-58
2022/11/07 10:21:55;;;;;;;;;;;;;;;15.93;42.32;101795.44;1843723;78;20119;-58
2022/11/07 10:24:24;;;;;;;;;;;;;;;16.23;42.44;101791.46;1841456;78;20163;-59
2022/11/07 10:26:53;;;;;;;;;;;;;;;16.47;42.10;101789.45;1844663;76;20111;-59
2022/11/07 10:29:23;;;;;;;;;;;;;;;15.89;43.05;101791.67;1843766;78;20107;-58
2022/11/07 10:31:55;;;;;;;;;;;;;;;15.36;43.84;101793.92;1843729;78;20123;-58
2022/11/07 10:34:25;;;;;;;;;;;;;;;14.91;44.33;101793.55;1841510;78;20128;-58
2022/11/07 10:36:52;;;;;;;;;;;;;;;14.73;44.99;101789.84;1844791;76;20193;-58
2022/11/07 10:39:20;;;;;;;;;;;;;;;14.60;45.09;101784.16;1843790;78;20165;-59
2022/11/07 10:41:49;;;;;;;;;;;;;;;14.61;45.37;101787.23;1870662;77;20195;-59
2022/11/07 10:44:18;;;;;;;;;;;;;;;14.77;45.39;101772.91;1872729;76;20121;-62
2022/11/07 10:46:47;;;;;;;;;;;;;;;14.82;45.25;101776.69;1813748;78;20117;-58
2022/11/07 10:49:22;;;;;;;;;;;;;;;14.73;45.22;101777.05;1813528;79;20384;-58
2022/11/07 10:51:51;;;;;;;;;;;;;;;14.69;45.37;101772.81;1813328;79;20204;-59
2022/11/07 10:54:23;;;;;;;;;;;;;;;14.65;45.57;101766.77;1813417;79;20180;-59
2022/11/07 10:57:10;;;;;;;;;;;;;;;14.60;45.71;101768.25;1819768;78;20117;-58
2022/11/07 10:59:43;;;;;;;;;;;;;;;14.64;45.63;101771.21;1813352;79;20152;-58
2022/11/07 11:02:19;;;;;;;;;;;;;;;14.60;45.24;101774.88;1813396;79;20175;-58
2022/11/07 11:04:52;;;;;;;;;;;;;;;14.63;45.07;101766.82;1813470;78;20217;-61
2022/11/07 11:07:21;;;;;;;;;;;;;;;14.73;45.04;101769.11;1824900;78;20557;-62
2022/11/07 11:09:57;;;;;;;;;;;;;;;14.75;44.55;101759.30;1843715;78;20201;-62
2022/11/07 11:12:28;;;;;;;;;;;;;;;14.87;44.46;101770.74;1840296;76;20149;-58
2022/11/07 11:15:04;;;;;;;;;;;;;;;14.70;44.00;101758.61;1837115;78;20128;-59
2022/11/07 11:17:32;;;;;;;;;;;;;;;14.75;44.37;101761.95;1836040;77;20112;-59
2022/11/07 11:20:00;;;;;;;;;;;;;;;14.49;45.00;101754.06;1837374;78;20120;-59
2022/11/07 11:22:28;;;;;;;;;;;;;;;14.33;45.70;101756.05;1837206;78;20124;-59
2022/11/07 11:25:03;;;;;;;;;;;;;;;14.09;45.53;101748.11;1837292;78;20123;-61
2022/11/07 11:27:33;;;;;;;;;;;;;;;13.75;45.66;101759.95;1839084;77;20237;-61
2022/11/07 11:30:05;;;;;;;;;;;;;;;13.37;46.38;101752.94;1806475;79;20125;-61
2022/11/07 11:32:34;;;;;;;;;;;;;;;13.09;46.85;101745.87;1807135;79;20129;-61
2022/11/07 11:35:04;;;;;;;;;;;;;;;12.74;47.33;101744.39;1807308;78;20157;-60
2022/11/07 11:37:33;;;;;;;;;;;;;;;12.69;47.94;101747.20;1809340;78;20121;-60
2022/11/07 11:40:02;;;;;;;;;;;;;;;12.85;47.96;101742.73;1833606;77;20190;-63
2022/11/07 11:42:41;;;;;;;;;;;;;;;12.95;47.74;101738.88;1868257;77;20150;-62
2022/11/07 11:45:11;;;;;;;;;;;;;;;12.95;47.77;101736.23;1809052;77;20177;-64
2022/11/07 11:47:40;;;;;;;;;;;;;;;12.88;47.73;101745.28;1867675;77;20156;-59
2022/11/07 11:50:15;;;;;;;;;;;;;;;12.80;48.04;101740.69;1845501;77;20111;-59
2022/11/07 11:52:44;;;;;;;;;;;;;;;12.48;48.56;101740.80;1837802;77;20124;-61
2022/11/07 11:55:15;;;;;;;;;;;;;;;11.98;49.36;101741.39;1836908;78;20143;-60
2022/11/07 11:57:44;;;;;;;;;;;;;;;11.62;50.32;101746.36;1837322;78;20370;-61
2022/11/07 12:00:22;;;;;;;;;;;;;;;11.43;50.94;101756.55;1824533;78;20172;-61
2022/11/07 12:03:08;;;;;;;;;;;;;;;11.18;51.31;101752.77;1820852;78;20150;-61
2022/11/07 12:05:42;;;;;;;;;;;;;;;11.02;51.99;101752.74;1835133;78;20119;-61
2022/11/07 12:08:28;;;;;;;;;;;;;;;11.01;52.34;101753.62;1837355;78;20111;-61
2022/11/07 12:11:07;;;;;;;;;;;;;;;10.91;52.43;101752.14;1837116;78;20119;-61
2022/11/07 12:13:39;;;;;;;;;;;;;;;10.87;52.58;101753.13;1840122;77;20146;-61
2022/11/07 12:16:23;;;;;;;;;;;;;;;10.85;52.90;101754.94;1843992;78;20350;-61
2022/11/07 12:19:09;;;;;;;;;;;;;;;10.85;53.03;101756.25;1844023;76;20158;-61
2022/11/07 12:21:39;;;;;;;;;;;;;;;10.80;53.17;101755.89;1841463;78;20149;-61
2022/11/07 12:24:11;;;;;;;;;;;;;;;10.79;53.14;101756.80;1844554;76;20107;-62
2022/11/07 12:26:41;;;;;;;;;;;;;;;10.68;53.31;101759.25;1843839;78;20171;-62
2022/11/07 12:29:10;;;;;;;;;;;;;;;10.56;53.38;101755.15;1844324;76;20115;-63
2022/11/07 12:31:48;;;;;;;;;;;;;;;10.47;53.63;101750.95;1832644;76;20148;-63
2022/11/07 12:34:21;;;;;;;;;;;;;;;10.40;53.78;101755.93;1844079;77;20198;-63
2022/11/07 12:37:01;;;;;;;;;;;;;;;10.30;53.96;101759.66;1845562;76;20166;-63
2022/11/07 12:39:36;;;;;;;;;;;;;;;10.20;54.17;101766.88;1843807;78;20193;-60
2022/11/07 12:42:13;;;;;;;;;;;;;;;10.12;54.42;101760.90;1841630;78;20119;-61
2022/11/07 12:44:40;;;;;;;;;;;;;;;10.00;54.64;101752.36;1843035;78;20178;-58
2022/11/07 12:47:15;;;;;;;;;;;;;;;9.96;54.80;101769.12;1844438;76;20116;-59
2022/11/07 12:49:45;;;;;;;;;;;;;;;9.92;54.90;101770.05;1845418;76;20148;-58
2022/11/07 12:52:26;;;;;;;;;;;;;;;9.86;54.97;101764.92;1841596;78;20154;-58
2022/11/07 12:55:02;;;;;;;;;;;;;;;9.81;55.03;101770.71;1814318;78;20126;-59
2022/11/07 12:57:34;;;;;;;;;;;;;;;9.74;55.31;101771.30;1813313;79;20423;-58
2022/11/07 13:00:04;;;;;;;;;;;;;;;9.68;55.48;101763.96;1813317;79;20118;-61
2022/11/07 13:02:33;;;;;;;;;;;;;;;9.65;55.62;101771.02;1814966;78;20181;-61
2022/11/07 13:05:04;;;;;;;;;;;;;;;9.63;55.80;101770.18;1815014;78;20117;-60
2022/11/07 13:07:52;;;;;;;;;;;;;;;9.59;56.00;101761.94;1813390;79;20162;-62
2022/11/07 13:10:25;;;;;;;;;;;;;;;9.53;56.14;101763.34;1813817;78;20121;-67
2022/11/07 13:12:54;;;;;;;;;;;;;;;9.49;56.34;101770.88;1813394;79;20125;-60